Time;durP1;ratioP1;P1;durP2;ratioP2;P2;SDS_P1;SDS_P2;PMS_P1;PMS_P2;Temp;Humidity;BMP_temperature;BMP_pressure;BME280_temperature;BME280_humidity;BME280_pressure;Samples;Min_cycle;Max_cycle;Signal;HPM_P1;HPM_P2
2023/03/31 00:00:59;;;;;;;17.95;2.40;;;10.70;99.90;;;10.12;100.00;96943.13;5042074;28;20053;-71
2023/03/31 00:03:26;;;;;;;11.88;2.28;;;10.70;99.90;;;10.27;100.00;96942.34;5037958;28;20128;-71
2023/03/31 00:05:58;;;;;;;16.52;2.05;;;10.70;99.90;;;10.17;100.00;96934.19;5008628;28;20175;-71
2023/03/31 00:08:28;;;;;;;9.73;1.58;;;10.70;99.90;;;10.28;100.00;96928.44;5040106;28;20049;-71
2023/03/31 00:11:01;;;;;;;16.73;2.35;;;10.70;99.90;;;10.18;100.00;96927.25;5039896;28;20045;-71
2023/03/31 00:13:29;;;;;;;14.13;2.25;;;10.70;99.90;;;10.25;100.00;96918.25;5042129;28;20055;-71
2023/03/31 00:16:03;;;;;;;14.10;2.92;;;10.80;99.90;;;10.39;100.00;96908.00;5027909;28;20242;-71
2023/03/31 00:18:31;;;;;;;10.93;1.63;;;10.80;99.90;;;10.23;100.00;96910.53;5042561;28;20053;-71
2023/03/31 00:21:13;;;;;;;12.48;1.58;;;10.80;99.90;;;10.26;100.00;96905.19;5027447;28;20113;-71
2023/03/31 00:23:41;;;;;;;19.65;3.10;;;10.80;99.90;;;10.26;100.00;96900.00;5044626;28;20103;-71
2023/03/31 00:26:08;;;;;;;10.73;1.80;;;10.80;99.90;;;10.24;100.00;96899.25;5031537;28;20427;-72
2023/03/31 00:28:38;;;;;;;12.95;2.40;;;10.80;99.90;;;10.29;100.00;96893.03;5042293;28;20113;-71
2023/03/31 00:31:05;;;;;;;16.95;2.13;;;10.80;99.90;;;10.33;100.00;96878.94;5027157;28;20056;-71
2023/03/31 00:33:32;;;;;;;12.00;1.98;;;10.80;99.90;;;10.24;100.00;96877.63;5041148;28;20053;-71
2023/03/31 00:36:00;;;;;;;12.02;2.40;;;10.80;99.90;;;10.24;100.00;96855.16;5042036;28;20041;-71
2023/03/31 00:38:29;;;;;;;10.68;1.65;;;10.80;99.90;;;10.30;100.00;96853.19;5043944;28;20041;-71
2023/03/31 00:40:57;;;;;;;10.70;1.45;;;10.80;99.90;;;10.34;100.00;96855.53;5032503;28;20493;-71
2023/03/31 00:43:36;;;;;;;12.73;1.80;;;10.80;99.90;;;10.21;100.00;96846.69;5045857;28;20080;-71
2023/03/31 00:46:17;;;;;;;13.93;2.03;;;10.80;99.90;;;10.14;100.00;96847.94;5035696;28;20119;-71
2023/03/31 00:48:56;;;;;;;11.50;2.20;;;10.80;99.90;;;10.18;100.00;96849.44;5013190;28;20107;-71
2023/03/31 00:51:27;;;;;;;15.02;2.40;;;10.80;99.90;;;10.19;100.00;96851.13;5038786;28;20646;-71
2023/03/31 00:54:03;;;;;;;10.50;1.50;;;10.80;99.90;;;10.16;100.00;96846.94;5031061;28;20048;-71
2023/03/31 00:56:38;;;;;;;8.85;1.38;;;10.80;99.90;;;10.19;100.00;96838.97;5009666;28;20435;-71
2023/03/31 00:59:10;;;;;;;10.88;1.73;;;10.80;99.90;;;10.29;100.00;96844.56;5056818;28;20051;-71
2023/03/31 01:01:41;;;;;;;11.75;1.65;;;10.80;99.90;;;10.36;100.00;96838.13;5026309;28;20048;-71
2023/03/31 01:04:11;;;;;;;14.68;1.73;;;10.80;99.90;;;10.27;100.00;96826.44;5035060;28;20049;-71
2023/03/31 01:06:50;;;;;;;8.18;1.52;;;10.80;99.90;;;10.18;100.00;96815.75;5022484;28;20125;-71
2023/03/31 01:09:17;;;;;;;10.15;1.75;;;10.90;99.90;;;10.37;100.00;96837.19;5040922;28;20067;-71
2023/03/31 01:11:46;;;;;;;16.60;2.42;;;10.90;99.90;;;10.21;100.00;96813.81;5026213;28;20041;-69
2023/03/31 01:14:13;;;;;;;12.85;2.05;;;10.80;99.90;;;10.15;100.00;96808.97;5030942;28;20081;-70
2023/03/31 01:16:40;;;;;;;9.93;2.05;;;10.80;99.90;;;10.01;100.00;96799.31;5027999;28;20060;-72
2023/03/31 01:19:48;;;;;;;9.05;2.10;;;10.80;99.90;;;9.95;100.00;96793.63;5010770;28;20049;-70
2023/03/31 01:22:44;;;;;;;13.25;2.30;;;10.70;99.90;;;9.94;100.00;96799.72;5041745;28;20067;-72
2023/03/31 01:26:22;;;;;;;11.70;2.67;;;10.60;99.90;;;9.86;100.00;96796.69;5044592;28;20048;-72
2023/03/31 01:29:07;;;;;;;14.02;1.60;;;10.60;99.90;;;9.83;100.00;96808.06;4969712;28;20048;-73
2023/03/31 01:32:21;;;;;;;13.25;2.00;;;10.40;99.90;;;9.72;100.00;96798.25;5029671;28;20968;-70
2023/03/31 01:34:50;;;;;;;14.43;1.98;;;10.40;99.90;;;9.64;100.00;96814.16;5038898;28;20592;-70
2023/03/31 01:38:00;;;;;;;10.82;1.80;;;10.30;99.90;;;9.63;100.00;96806.50;5040696;28;20132;-72
2023/03/31 01:41:07;;;;;;;13.32;1.90;;;10.30;99.90;;;9.54;100.00;96810.38;5036936;28;20063;-72
2023/03/31 01:44:07;;;;;;;16.10;2.53;;;10.20;99.90;;;9.40;100.00;96818.84;5025760;28;20057;-72
2023/03/31 01:46:47;;;;;;;13.68;1.80;;;10.20;99.90;;;9.35;100.00;96810.47;5058851;28;20064;-72
2023/03/31 01:49:31;;;;;;;14.77;1.80;;;10.10;99.90;;;9.20;100.00;96806.06;5039721;28;20538;-69
2023/03/31 01:52:08;;;;;;;14.68;1.75;;;10.00;99.90;;;9.12;100.00;96801.28;5041995;28;20120;-72
2023/03/31 01:54:49;;;;;;;13.93;1.90;;;9.90;99.90;;;9.06;100.00;96796.38;5029237;28;20041;-71
2023/03/31 01:57:38;;;;;;;9.90;1.85;;;9.80;99.90;;;8.99;100.00;96801.03;5029830;28;20057;-72
2023/03/31 02:00:15;;;;;;;11.75;1.88;;;9.70;99.90;;;8.94;100.00;96813.34;5028764;28;20141;-69
2023/03/31 02:03:11;;;;;;;16.38;2.03;;;9.70;99.90;;;8.95;100.00;96803.81;5042445;28;20536;-71
2023/03/31 02:06:13;;;;;;;16.60;2.63;;;9.60;99.90;;;8.87;100.00;96798.16;5029595;28;20059;-71
2023/03/31 02:08:47;;;;;;;12.95;1.80;;;9.60;99.90;;;8.82;100.00;96792.38;5024662;28;20053;-69
2023/03/31 02:11:15;;;;;;;11.93;1.85;;;9.60;99.90;;;8.81;100.00;96790.72;5029986;28;20493;-70
2023/03/31 02:13:45;;;;;;;7.60;1.60;;;9.50;99.90;;;8.84;100.00;96790.56;5026356;28;20466;-69
2023/03/31 02:16:23;;;;;;;12.90;1.90;;;9.50;99.90;;;8.81;100.00;96776.03;5040772;28;20041;-70
2023/03/31 02:19:00;;;;;;;10.05;1.65;;;9.50;99.90;;;8.77;100.00;96777.91;5038602;28;20083;-70
2023/03/31 02:21:33;;;;;;;8.68;1.58;;;9.40;99.90;;;8.72;100.00;96763.53;5031848;28;20099;-69
2023/03/31 02:24:07;;;;;;;10.07;1.45;;;9.50;99.90;;;8.73;100.00;96752.25;5044611;28;20172;-70
2023/03/31 02:26:41;;;;;;;9.57;1.10;;;9.50;99.90;;;8.71;100.00;96754.94;5022020;28;20045;-69
2023/03/31 02:29:08;;;;;;;8.90;1.45;;;9.50;99.90;;;8.69;100.00;96736.06;5029278;28;20052;-70
2023/03/31 02:32:00;;;;;;;7.05;1.10;;;9.50;99.90;;;8.69;100.00;96741.25;5024496;28;20052;-69
2023/03/31 02:34:27;;;;;;;8.55;2.00;;;9.50;99.90;;;8.66;100.00;96727.59;5042485;28;20052;-71
2023/03/31 02:36:54;;;;;;;7.65;1.50;;;9.40;99.90;;;8.66;100.00;96712.09;5025907;28;20879;-70
2023/03/31 02:39:28;;;;;;;10.75;1.63;;;9.40;99.90;;;8.64;100.00;96704.38;5042239;28;20045;-70
2023/03/31 02:41:56;;;;;;;7.55;1.20;;;9.40;99.90;;;8.64;100.00;96711.31;5042272;28;20084;-69
2023/03/31 02:44:24;;;;;;;8.60;1.35;;;9.40;99.90;;;8.61;100.00;96707.13;5042799;28;20095;-70
2023/03/31 02:46:51;;;;;;;9.35;1.30;;;9.40;99.90;;;8.63;100.00;96704.47;5040488;28;20057;-70
2023/03/31 02:49:20;;;;;;;9.75;1.27;;;9.40;99.90;;;8.64;100.00;96713.91;5025941;28;20439;-70
2023/03/31 02:52:35;;;;;;;10.15;1.40;;;9.40;99.90;;;8.67;100.00;96703.44;5023080;28;20045;-70
2023/03/31 02:55:38;;;;;;;8.23;1.40;;;9.40;99.90;;;8.61;100.00;96693.38;5042320;28;20044;-70
2023/03/31 02:58:35;;;;;;;8.27;1.10;;;9.30;99.90;;;8.62;100.00;96675.19;5043658;28;20063;-72
2023/03/31 03:01:30;;;;;;;11.57;1.20;;;9.30;99.90;;;8.65;100.00;96662.09;5028926;28;20072;-72
2023/03/31 03:04:15;;;;;;;10.68;1.33;;;9.40;99.90;;;8.60;100.00;96635.63;5044441;28;20041;-72
2023/03/31 03:07:20;;;;;;;14.48;1.95;;;9.30;99.90;;;8.65;100.00;96620.72;5042385;28;20408;-70
2023/03/31 03:10:10;;;;;;;10.23;1.60;;;9.40;99.90;;;8.64;100.00;96606.09;5033224;28;20596;-70
2023/03/31 03:13:09;;;;;;;8.20;1.58;;;9.40;99.90;;;8.61;100.00;96606.25;5025539;28;20051;-70
2023/03/31 03:15:51;;;;;;;11.55;1.35;;;9.40;99.90;;;8.63;100.00;96603.59;5039197;28;20044;-69
2023/03/31 03:18:19;;;;;;;12.40;1.70;;;9.30;99.90;;;8.65;100.00;96591.44;5019983;28;20461;-70
2023/03/31 03:20:48;;;;;;;14.68;1.42;;;9.40;99.90;;;8.64;100.00;96567.28;5043304;28;20590;-72
2023/03/31 03:23:17;;;;;;;11.20;1.77;;;9.40;99.90;;;8.61;100.00;96561.44;5032014;28;20055;-71
2023/03/31 03:25:45;;;;;;;15.77;2.00;;;9.40;99.90;;;8.58;100.00;96567.63;5026301;28;20467;-72
2023/03/31 03:28:12;;;;;;;11.40;2.08;;;9.30;99.90;;;8.61;100.00;96569.22;5042709;28;20053;-70
2023/03/31 03:30:39;;;;;;;14.48;1.55;;;9.40;99.90;;;8.58;100.00;96573.63;5040271;28;20423;-72
2023/03/31 03:33:06;;;;;;;13.43;1.75;;;9.20;99.90;;;8.57;100.00;96571.09;5040455;28;20162;-72
2023/03/31 03:35:35;;;;;;;11.60;1.42;;;9.20;99.90;;;8.59;100.00;96574.44;5040670;28;20518;-72
2023/03/31 03:38:01;;;;;;;14.07;1.73;;;9.10;99.90;;;8.55;100.00;96575.50;5043515;28;20055;-72
2023/03/31 03:40:29;;;;;;;11.15;1.70;;;9.20;99.90;;;8.51;100.00;96566.25;5040510;28;20124;-72
2023/03/31 03:42:56;;;;;;;14.52;1.88;;;9.10;99.90;;;8.55;100.00;96575.50;5040776;28;20060;-72
2023/03/31 03:45:23;;;;;;;12.98;1.83;;;9.10;99.90;;;8.52;100.00;96562.75;5043702;28;20049;-71
2023/03/31 03:47:50;;;;;;;9.20;1.33;;;9.20;99.90;;;8.50;100.00;96555.06;5037758;28;20076;-71
2023/03/31 03:50:17;;;;;;;14.38;2.40;;;9.20;99.90;;;8.51;100.00;96567.09;5024986;28;20710;-71
2023/03/31 03:52:44;;;;;;;8.10;1.35;;;9.20;99.90;;;8.56;100.00;96557.34;5039740;28;20519;-71
2023/03/31 03:55:12;;;;;;;10.48;1.65;;;9.10;99.90;;;8.56;100.00;96562.50;5029163;28;20083;-71
2023/03/31 03:57:39;;;;;;;14.45;1.60;;;9.20;99.90;;;8.51;100.00;96554.16;5044682;28;20127;-72
2023/03/31 04:00:11;;;;;;;12.82;2.13;;;9.20;99.90;;;8.50;100.00;96557.63;5046307;28;20045;-72
2023/03/31 04:02:39;;;;;;;10.52;1.80;;;9.20;99.90;;;8.54;100.00;96555.75;5029094;28;20512;-71
2023/03/31 04:05:06;;;;;;;8.55;1.55;;;9.20;99.90;;;8.55;100.00;96552.22;5029344;28;20045;-71
2023/03/31 04:07:33;;;;;;;11.35;2.08;;;9.20;99.90;;;8.48;100.00;96538.78;5029850;28;20060;-71
2023/03/31 04:10:00;;;;;;;15.20;2.70;;;9.20;99.90;;;8.44;100.00;96542.47;5042378;28;20081;-71
2023/03/31 04:12:27;;;;;;;14.80;2.15;;;9.20;99.90;;;8.41;100.00;96542.59;5022185;28;20698;-71
2023/03/31 04:14:55;;;;;;;14.95;2.45;;;9.20;99.90;;;8.44;100.00;96541.59;5025840;28;20128;-71
2023/03/31 04:17:31;;;;;;;12.57;2.30;;;9.10;99.90;;;8.48;100.00;96537.94;5044339;28;20103;-71
2023/03/31 04:20:08;;;;;;;14.70;2.38;;;9.10;99.90;;;8.50;100.00;96534.38;5041951;28;20526;-71
2023/03/31 04:22:39;;;;;;;10.80;2.08;;;9.10;99.90;;;8.47;100.00;96538.88;5042804;28;20052;-71
2023/03/31 04:25:15;;;;;;;11.35;2.97;;;9.10;99.90;;;8.33;100.00;96527.44;5028413;28;20131;-70
2023/03/31 04:27:49;;;;;;;16.50;2.55;;;9.10;99.90;;;8.40;100.00;96527.13;5021683;28;20117;-70
2023/03/31 04:30:22;;;;;;;10.60;2.53;;;9.10;99.90;;;8.38;100.00;96530.63;5027412;28;20503;-71
2023/03/31 04:32:59;;;;;;;11.75;2.33;;;9.10;99.90;;;8.42;100.00;96525.34;5045150;28;20072;-71
2023/03/31 04:35:41;;;;;;;11.35;2.53;;;9.10;99.90;;;8.43;100.00;96524.41;5043800;28;20049;-70
2023/03/31 04:38:08;;;;;;;10.35;2.08;;;9.10;99.90;;;8.39;100.00;96510.75;5030070;28;20041;-70
2023/03/31 04:40:35;;;;;;;15.63;3.30;;;9.10;99.90;;;8.41;100.00;96514.16;5043996;28;20135;-71
2023/03/31 04:43:02;;;;;;;11.20;2.42;;;9.00;99.90;;;8.42;100.00;96507.25;5042778;28;20707;-70
2023/03/31 04:45:29;;;;;;;15.80;2.88;;;9.10;99.90;;;8.32;100.00;96494.72;5045932;28;20069;-71
2023/03/31 04:47:56;;;;;;;11.57;2.72;;;9.10;99.90;;;8.40;100.00;96502.16;5045691;28;20114;-70
2023/03/31 04:50:23;;;;;;;13.57;2.75;;;9.00;99.90;;;8.40;100.00;96501.28;5026492;28;20056;-70
2023/03/31 04:52:50;;;;;;;12.48;3.35;;;9.00;99.90;;;8.36;100.00;96496.25;5028089;28;20419;-70
2023/03/31 04:55:17;;;;;;;14.88;3.17;;;8.90;99.90;;;8.41;100.00;96479.69;5046075;28;20059;-70
2023/03/31 04:57:44;;;;;;;12.25;3.42;;;8.90;99.90;;;8.43;100.00;96483.88;5043293;28;20059;-71
2023/03/31 05:00:13;;;;;;;15.23;3.63;;;9.00;99.90;;;8.43;100.00;96467.53;5028518;28;20052;-70
2023/03/31 05:02:40;;;;;;;12.48;2.50;;;9.00;99.90;;;8.42;100.00;96450.34;5025109;28;20083;-70
2023/03/31 05:05:07;;;;;;;13.20;3.15;;;9.00;99.90;;;8.37;100.00;96448.81;5030839;28;20045;-70
2023/03/31 05:07:34;;;;;;;12.75;3.30;;;8.90;99.90;;;8.37;100.00;96428.13;5014512;28;20040;-70
2023/03/31 05:10:01;;;;;;;10.52;3.25;;;9.00;99.90;;;8.36;100.00;96421.25;5034630;28;20049;-71
2023/03/31 05:12:28;;;;;;;15.63;3.80;;;8.90;99.90;;;8.39;100.00;96428.03;5042640;28;20061;-70
2023/03/31 05:14:55;;;;;;;13.98;4.45;;;8.90;99.90;;;8.37;100.00;96415.19;5044268;28;20057;-70
2023/03/31 05:17:22;;;;;;;15.05;3.80;;;9.00;99.90;;;8.41;100.00;96410.72;5023133;28;20049;-70
2023/03/31 05:19:49;;;;;;;15.32;4.65;;;8.90;99.90;;;8.41;100.00;96397.78;5042917;28;20045;-70
2023/03/31 05:22:19;;;;;;;16.88;4.70;;;8.90;99.90;;;8.38;100.00;96378.06;5046451;28;20045;-70
2023/03/31 05:24:46;;;;;;;12.65;4.68;;;9.00;99.90;;;8.37;100.00;96349.72;5044698;28;20118;-71
2023/03/31 05:27:15;;;;;;;14.50;4.90;;;8.90;99.90;;;8.44;100.00;96343.34;5043345;28;20059;-70
2023/03/31 05:29:42;;;;;;;16.60;4.72;;;9.00;99.90;;;8.43;100.00;96328.72;5023796;28;20554;-70
2023/03/31 05:32:09;;;;;;;13.32;4.68;;;8.90;99.90;;;8.44;100.00;96311.44;5028390;28;20592;-71
2023/03/31 05:34:36;;;;;;;14.05;4.60;;;8.90;99.90;;;8.43;100.00;96292.53;5031721;28;20084;-71
2023/03/31 05:37:04;;;;;;;15.98;5.38;;;8.90;99.90;;;8.43;100.00;96284.75;5044594;28;20495;-71
2023/03/31 05:39:31;;;;;;;16.15;5.18;;;9.00;99.90;;;8.45;100.00;96290.69;5047501;28;20136;-71
2023/03/31 05:41:59;;;;;;;11.63;4.07;;;9.00;99.90;;;8.49;100.00;96287.03;5026648;28;20053;-72
2023/03/31 05:44:29;;;;;;;14.13;4.40;;;9.00;99.90;;;8.51;100.00;96287.78;5043860;28;20435;-71
2023/03/31 05:46:56;;;;;;;12.65;5.00;;;9.10;99.90;;;8.56;100.00;96270.25;5044399;28;20103;-71
2023/03/31 05:49:23;;;;;;;15.45;4.50;;;9.10;99.90;;;8.58;100.00;96281.34;5041614;28;20055;-71
2023/03/31 05:51:50;;;;;;;15.93;4.53;;;9.10;99.90;;;8.61;100.00;96267.41;5021661;28;20115;-71
2023/03/31 05:54:18;;;;;;;14.93;4.47;;;9.10;99.90;;;8.62;100.00;96287.19;5026346;28;20059;-71
2023/03/31 05:56:45;;;;;;;14.48;5.15;;;9.10;99.90;;;8.62;100.00;96282.03;5042119;28;20068;-71
2023/03/31 05:59:12;;;;;;;14.30;4.10;;;9.20;99.90;;;8.70;100.00;96300.53;5042323;28;20088;-71
2023/03/31 06:01:41;;;;;;;12.05;4.25;;;9.20;99.90;;;8.79;100.00;96283.66;5042035;28;20503;-71
2023/03/31 06:04:08;;;;;;;13.55;4.53;;;9.30;99.90;;;8.73;100.00;96264.13;5042305;28;20053;-71
2023/03/31 06:06:36;;;;;;;19.67;5.43;;;9.30;99.90;;;8.77;100.00;96275.97;5039904;28;20057;-71
2023/03/31 06:09:05;;;;;;;13.68;4.85;;;9.30;99.90;;;8.81;100.00;96263.72;5041010;28;20045;-71
2023/03/31 06:11:32;;;;;;;16.95;5.03;;;9.40;99.90;;;8.85;100.00;96283.31;5026449;28;20048;-71
2023/03/31 06:13:59;;;;;;;14.73;5.18;;;9.40;99.90;;;8.89;100.00;96289.13;5041889;28;20506;-71
2023/03/31 06:16:28;;;;;;;11.63;4.45;;;9.40;99.90;;;9.05;100.00;96295.09;5044182;28;20041;-71
2023/03/31 06:18:58;;;;;;;16.90;5.28;;;9.50;99.90;;;9.00;100.00;96302.31;5026762;28;20149;-71
2023/03/31 06:21:25;;;;;;;13.88;4.60;;;9.50;99.90;;;9.10;100.00;96290.53;5025793;28;20074;-71
2023/03/31 06:23:54;;;;;;;15.23;5.10;;;9.60;99.90;;;9.02;100.00;96291.88;5028254;28;20057;-71
2023/03/31 06:26:22;;;;;;;16.15;4.63;;;9.50;99.90;;;9.07;100.00;96298.44;5039626;28;20053;-71
2023/03/31 06:28:49;;;;;;;15.18;5.97;;;9.50;99.90;;;9.13;100.00;96303.28;5025979;28;20057;-70
2023/03/31 06:31:23;;;;;;;18.05;6.53;;;9.60;99.90;;;9.23;100.00;96306.16;5041097;28;20652;-69
2023/03/31 06:33:51;;;;;;;16.70;5.28;;;9.60;99.90;;;9.39;100.00;96301.75;5019715;28;20049;-69
2023/03/31 06:36:21;;;;;;;15.18;5.28;;;9.70;99.90;;;9.45;100.00;96333.44;5042692;28;20049;-69
2023/03/31 06:38:49;;;;;;;13.48;5.20;;;9.80;99.90;;;9.58;100.00;96311.06;5056586;28;20052;-69
2023/03/31 06:41:19;;;;;;;11.90;4.75;;;9.80;99.90;;;9.48;100.00;96300.41;5040310;28;20049;-70
2023/03/31 06:43:47;;;;;;;14.32;5.43;;;9.90;99.90;;;9.53;100.00;96311.31;5042892;28;20361;-70
2023/03/31 06:46:14;;;;;;;13.93;4.82;;;9.90;99.90;;;9.59;100.00;96310.97;5039983;28;20103;-70
2023/03/31 06:48:41;;;;;;;15.70;5.43;;;9.90;99.90;;;9.60;100.00;96291.06;5039889;28;20072;-70
2023/03/31 06:51:09;;;;;;;18.02;5.72;;;10.00;99.90;;;9.70;100.00;96333.66;5023400;28;20056;-70
2023/03/31 06:53:36;;;;;;;12.57;5.35;;;10.10;99.90;;;9.90;100.00;96314.34;5024698;28;20047;-71
2023/03/31 06:56:05;;;;;;;13.43;5.60;;;10.20;99.90;;;9.83;100.00;96305.28;5042425;28;20160;-70
2023/03/31 06:58:33;;;;;;;16.05;5.18;;;10.20;99.90;;;9.80;100.00;96280.34;5034244;28;20049;-70
2023/03/31 07:01:03;;;;;;;20.75;5.93;;;10.20;99.90;;;9.83;100.00;96258.63;5042265;28;20123;-70
2023/03/31 07:03:34;;;;;;;15.55;5.78;;;10.30;99.90;;;9.90;100.00;96295.34;5027568;28;20084;-70
2023/03/31 07:06:01;;;;;;;11.90;5.05;;;10.30;99.90;;;9.90;100.00;96279.78;5035370;28;20108;-70
2023/03/31 07:08:28;;;;;;;18.75;5.65;;;10.30;99.90;;;10.03;100.00;96286.75;5040639;28;20053;-70
2023/03/31 07:10:58;;;;;;;20.70;5.65;;;10.40;99.90;;;10.18;100.00;96317.84;5043987;28;20064;-70
2023/03/31 07:13:27;;;;;;;14.55;5.15;;;10.50;99.90;;;10.27;100.00;96286.16;5024168;28;20049;-70
2023/03/31 07:15:55;;;;;;;13.07;4.57;;;10.50;99.90;;;10.25;100.00;96269.84;5036808;28;20072;-70
2023/03/31 07:18:30;;;;;;;17.63;4.65;;;10.50;99.90;;;10.20;100.00;96293.47;5027850;28;20052;-70
2023/03/31 07:21:02;;;;;;;12.35;4.80;;;10.50;99.90;;;10.26;100.00;96279.28;5040842;28;20037;-70
2023/03/31 07:23:34;;;;;;;;;;;10.50;99.90;;;10.16;100.00;96268.66;5039304;28;20041;-70
2023/03/31 07:26:01;;;;;;;13.00;4.50;;;10.50;99.90;;;9.99;100.00;96289.59;5040502;28;20008;-70
2023/03/31 07:28:29;;;;;;;15.65;4.90;;;10.40;99.90;;;9.60;100.00;96268.59;5025701;28;20049;-70
2023/03/31 07:30:56;;;;;;;12.18;3.10;;;10.20;99.90;;;9.11;100.00;96306.88;5041943;28;20136;-69
2023/03/31 07:33:23;;;;;;;9.45;3.80;;;9.80;99.90;;;9.21;100.00;96282.97;5044208;28;20048;-69
2023/03/31 07:35:50;;;;;;;12.95;3.58;;;9.60;99.90;;;9.37;100.00;96306.22;5012184;28;20045;-69
2023/03/31 07:38:33;;;;;;;;;;;9.70;99.90;;;9.40;100.00;96300.84;5045111;28;20049;-69
2023/03/31 07:41:01;;;;;;;12.38;3.30;;;9.70;99.90;;;9.43;100.00;96287.72;5040591;28;20058;-70
2023/03/31 07:43:35;;;;;;;17.05;4.10;;;9.70;99.90;;;9.52;100.00;96303.66;5043130;28;20053;-70
2023/03/31 07:46:04;;;;;;;15.27;4.82;;;9.70;99.90;;;9.62;100.00;96292.66;5028969;28;20676;-70
2023/03/31 07:48:32;;;;;;;15.23;5.68;;;9.90;99.90;;;9.61;100.00;96298.75;5041413;28;20045;-70
2023/03/31 07:51:00;;;;;;;17.48;6.20;;;9.90;99.90;;;9.64;100.00;96300.31;5044320;28;20825;-69
2023/03/31 07:53:27;;;;;;;20.15;5.63;;;10.00;99.90;;;9.79;100.00;96296.84;5043524;28;20124;-70
2023/03/31 07:55:55;;;;;;;22.52;5.57;;;10.10;99.90;;;9.90;100.00;96303.13;5044827;28;20043;-69
2023/03/31 07:58:22;;;;;;;18.27;5.80;;;10.20;99.90;;;9.86;100.00;96319.81;5032786;28;20049;-70
2023/03/31 08:00:49;;;;;;;21.65;5.85;;;10.20;99.90;;;9.78;100.00;96292.59;5044900;28;20133;-69
2023/03/31 08:03:16;;;;;;;16.77;4.97;;;10.20;99.90;;;9.72;100.00;96290.34;5046700;28;20159;-69
2023/03/31 08:05:43;;;;;;;14.38;4.10;;;10.10;99.90;;;9.67;100.00;96302.75;5042655;28;20436;-70
2023/03/31 08:08:12;;;;;;;13.77;3.47;;;10.10;99.90;;;9.67;100.00;96278.59;5041566;28;20049;-69
2023/03/31 08:10:42;;;;;;;14.00;4.00;;;10.10;99.90;;;9.70;100.00;96273.25;5023745;28;20138;-69
2023/03/31 08:13:09;;;;;;;18.23;4.32;;;10.20;99.90;;;9.76;100.00;96283.22;5043881;28;20136;-70
2023/03/31 08:15:36;;;;;;;17.55;5.20;;;10.20;99.90;;;9.80;100.00;96279.53;5044740;28;20041;-69
2023/03/31 08:18:05;;;;;;;13.90;3.65;;;10.20;99.90;;;9.86;100.00;96250.66;5043810;28;20148;-69
2023/03/31 08:20:32;;;;;;;12.73;3.50;;;10.30;99.90;;;9.94;100.00;96244.97;5044772;28;20037;-69
2023/03/31 08:22:59;;;;;;;17.35;3.35;;;10.30;99.90;;;9.99;100.00;96243.78;5043989;28;20453;-69
2023/03/31 08:25:26;;;;;;;7.75;1.95;;;10.30;99.90;;;10.12;100.00;96214.50;5045114;28;20176;-69
2023/03/31 08:27:53;;;;;;;12.45;2.50;;;10.40;99.90;;;9.99;100.00;96189.34;5045276;28;20052;-70
2023/03/31 08:30:20;;;;;;;10.40;2.35;;;10.40;99.90;;;9.90;100.00;96181.31;5041429;28;20064;-70
2023/03/31 08:32:47;;;;;;;11.75;2.88;;;10.40;99.90;;;9.81;100.00;96188.72;5042609;28;20136;-70
2023/03/31 08:35:14;;;;;;;11.07;2.03;;;10.20;99.90;;;9.66;100.00;96194.84;5042763;28;20102;-70
2023/03/31 08:37:41;;;;;;;17.30;3.45;;;10.10;99.90;;;9.41;100.00;96224.81;5059672;28;20045;-70
2023/03/31 08:40:19;;;;;;;15.85;2.67;;;10.00;99.90;;;9.07;100.00;96271.72;5044454;28;20419;-69
2023/03/31 08:42:52;;;;;;;17.17;2.83;;;9.80;99.90;;;8.74;100.00;96258.03;5029911;28;20063;-69
2023/03/31 08:45:31;;;;;;;17.55;3.75;;;9.50;99.90;;;8.67;100.00;96287.75;5025514;28;20127;-69
2023/03/31 08:48:29;;;;;;;12.75;2.20;;;9.20;99.90;;;8.47;100.00;96278.50;5025061;28;20044;-69
2023/03/31 08:51:05;;;;;;;13.57;2.72;;;9.00;99.90;;;8.11;100.00;96276.13;5030624;28;20064;-69
2023/03/31 08:53:57;;;;;;;13.45;2.78;;;8.70;99.90;;;8.09;100.00;96283.13;5027839;28;20578;-69
2023/03/31 08:56:26;;;;;;;11.82;2.50;;;8.60;99.90;;;8.17;100.00;96266.31;5032611;28;20073;-68
2023/03/31 08:58:54;;;;;;;15.45;3.13;;;8.60;99.90;;;8.29;100.00;96269.16;5039649;28;20538;-69
2023/03/31 09:01:55;;;;;;;13.93;3.45;;;8.70;99.90;;;8.46;100.00;96278.59;5044475;28;20052;-68
2023/03/31 09:04:32;;;;;;;14.70;3.75;;;8.80;99.90;;;8.55;100.00;96278.06;5027030;28;20429;-68
2023/03/31 09:07:38;;;;;;;15.35;3.70;;;8.90;99.90;;;8.58;100.00;96252.06;5041494;28;20080;-69
2023/03/31 09:10:44;;;;;;;13.95;2.88;;;9.00;99.90;;;8.67;100.00;96298.13;5000000;28;20154;-69
2023/03/31 09:13:47;;;;;;;17.60;3.20;;;9.00;99.90;;;8.67;100.00;96292.13;5043441;28;20124;-69
2023/03/31 09:16:24;;;;;;;9.82;2.40;;;9.10;99.90;;;8.53;100.00;96291.13;5026561;28;20746;-69
2023/03/31 09:18:59;;;;;;;11.50;1.88;;;9.00;99.90;;;8.45;100.00;96279.53;5027848;28;20055;-69
2023/03/31 09:21:39;;;;;;;9.52;1.52;;;8.90;99.90;;;8.47;100.00;96255.25;5024250;28;20499;-69
2023/03/31 09:24:27;;;;;;;11.73;2.55;;;8.80;99.90;;;8.74;100.00;96272.75;5010153;28;20451;-68
2023/03/31 09:27:01;;;;;;;13.63;2.30;;;8.90;99.90;;;8.92;100.00;96273.47;5026128;28;20056;-69
2023/03/31 09:29:40;;;;;;;13.82;3.17;;;9.00;99.90;;;9.33;100.00;96262.47;5026752;28;20059;-69
2023/03/31 09:32:20;;;;;;;18.35;3.13;;;9.30;99.90;;;9.87;100.00;96282.56;5044241;28;20045;-69
2023/03/31 09:34:56;;;;;;;17.50;2.63;;;9.90;99.90;;;10.07;100.00;96263.22;5038592;28;20059;-69
2023/03/31 09:37:30;;;;;;;16.55;3.28;;;10.20;99.90;;;10.23;100.00;96243.19;5026451;28;20102;-69
2023/03/31 09:40:06;;;;;;;22.23;3.22;;;10.30;99.90;;;10.38;100.00;96225.88;5038830;28;20148;-69
2023/03/31 09:42:37;;;;;;;16.35;3.40;;;10.40;99.90;;;10.54;100.00;96203.22;5027067;28;20045;-69
2023/03/31 09:45:05;;;;;;;16.92;4.00;;;10.70;99.90;;;10.80;100.00;96204.09;5041704;28;20056;-69
2023/03/31 09:47:43;;;;;;;27.35;4.22;;;10.90;99.90;;;10.56;100.00;96196.16;5041580;28;20474;-69
2023/03/31 09:50:11;;;;;;;18.30;3.35;;;10.90;99.90;;;10.55;100.00;96165.94;5024898;28;20115;-69
2023/03/31 09:52:43;;;;;;;22.63;3.50;;;10.80;99.90;;;10.63;100.00;96171.47;5041521;28;20053;-69
2023/03/31 09:55:17;;;;;;;22.33;3.95;;;10.90;99.90;;;10.80;100.00;96159.97;5041334;28;20041;-70
2023/03/31 09:58:06;;;;;;;19.27;3.40;;;11.00;99.90;;;10.49;100.00;96165.50;5041172;28;20045;-69
2023/03/31 10:00:34;;;;;;;19.48;3.08;;;11.00;99.90;;;10.48;100.00;96145.69;5025408;28;20056;-69
2023/03/31 10:03:06;;;;;;;23.88;4.20;;;11.00;99.90;;;10.51;100.00;96150.69;5027010;28;20052;-69
2023/03/31 10:05:38;;;;;;;16.38;3.42;;;10.90;99.90;;;10.66;100.00;96136.69;5024016;28;20057;-69
2023/03/31 10:08:29;;;;;;;29.30;5.05;;;11.00;99.90;;;10.89;100.00;96133.41;5061559;28;20531;-69
2023/03/31 10:11:03;;;;;;;23.88;3.95;;;11.10;99.90;;;10.89;100.00;96084.09;5029274;28;20045;-69
2023/03/31 10:14:08;;;;;;;17.88;3.20;;;11.20;99.90;;;11.09;100.00;96097.50;5041107;28;20053;-69
2023/03/31 10:16:54;;;;;;;16.30;3.28;;;11.30;99.90;;;10.73;100.00;96049.72;5040634;28;20056;-69
2023/03/31 10:19:25;;;;;;;18.25;3.40;;;11.30;99.90;;;10.51;100.00;96076.25;5043521;28;20073;-69
2023/03/31 10:22:20;;;;;;;17.60;3.25;;;11.20;99.90;;;10.44;100.00;96073.25;5023841;28;20084;-69
2023/03/31 10:24:50;;;;;;;17.70;2.55;;;11.00;99.90;;;10.12;100.00;96028.66;5042509;28;20487;-69
2023/03/31 10:27:27;;;;;;;18.38;2.90;;;10.80;99.90;;;9.94;100.00;96089.47;5036815;28;20080;-69
2023/03/31 10:30:00;;;;;;;10.40;2.10;;;10.60;99.90;;;9.88;100.00;96093.28;5039912;28;20553;-69
2023/03/31 10:32:41;;;;;;;8.23;1.75;;;10.60;99.90;;;9.97;100.00;96065.97;5038992;28;20053;-69
2023/03/31 10:35:35;;;;;;;17.10;2.75;;;10.60;99.90;;;10.60;100.00;96064.44;5027391;28;20045;-69
2023/03/31 10:38:35;;;;;;;14.48;2.75;;;11.00;99.90;;;11.26;100.00;96039.19;5026168;28;20519;-69
2023/03/31 10:41:03;;;;;;;14.02;2.28;;;11.50;99.90;;;11.68;100.00;96078.69;5036010;28;20041;-69
2023/03/31 10:43:49;;;;;;;15.35;2.47;;;11.90;99.90;;;11.90;100.00;96049.38;5027498;28;20322;-69